createdAt,value
2018-09-14T00:02:22.079Z,10.47
2018-09-14T00:04:50.186Z,9.20
2018-09-14T00:07:18.278Z,9.50
2018-09-14T00:09:46.378Z,10.67
2018-09-14T00:12:14.482Z,11.43
2018-09-14T00:14:42.585Z,9.80
2018-09-14T00:17:10.686Z,10.47
2018-09-14T00:19:38.805Z,11.10
2018-09-14T00:22:07.106Z,9.80
2018-09-14T00:24:35.227Z,10.33
2018-09-14T00:27:03.336Z,10.10
2018-09-14T00:29:31.449Z,11.63
2018-09-14T00:31:59.546Z,11.07
2018-09-14T00:34:27.669Z,11.90
2018-09-14T00:36:55.769Z,10.90
2018-09-14T00:39:23.876Z,12.20
2018-09-14T00:41:51.974Z,10.53
2018-09-14T00:44:20.119Z,11.43
2018-09-14T00:46:48.217Z,12.27
2018-09-14T00:49:16.343Z,12.80
2018-09-14T00:51:44.442Z,12.33
2018-09-14T00:54:12.545Z,11.50
2018-09-14T00:56:40.651Z,10.43
2018-09-14T00:59:08.762Z,11.00
2018-09-14T01:01:36.862Z,9.93
2018-09-14T01:04:04.975Z,10.60
2018-09-14T01:06:33.075Z,9.60
2018-09-14T01:09:01.178Z,10.23
2018-09-14T01:11:29.302Z,10.30
2018-09-14T01:13:57.402Z,9.17
2018-09-14T01:16:25.486Z,9.47
2018-09-14T01:18:53.586Z,9.00
2018-09-14T01:21:21.918Z,8.90
2018-09-14T01:23:50.026Z,9.13
2018-09-14T01:26:18.114Z,7.03
2018-09-14T01:28:46.222Z,8.03
2018-09-14T01:31:14.303Z,7.57
2018-09-14T01:33:42.407Z,6.60
2018-09-14T01:36:10.533Z,7.77
2018-09-14T01:38:38.618Z,7.20
2018-09-14T01:41:06.733Z,6.50
2018-09-14T01:43:34.881Z,6.10
2018-09-14T01:46:02.991Z,7.30
2018-09-14T01:48:31.087Z,7.83
2018-09-14T01:50:59.182Z,7.70
2018-09-14T01:53:27.278Z,7.80
2018-09-14T01:55:55.379Z,7.33
2018-09-14T01:58:23.479Z,6.80
2018-09-14T02:00:51.566Z,5.77
2018-09-14T02:03:19.659Z,6.17
2018-09-14T02:05:47.753Z,5.30
2018-09-14T02:08:15.857Z,4.70
2018-09-14T02:10:43.958Z,4.47
2018-09-14T02:13:12.044Z,4.90
2018-09-14T02:15:40.142Z,4.73
2018-09-14T02:18:08.233Z,4.53
2018-09-14T02:20:36.326Z,4.97
2018-09-14T02:23:04.413Z,4.50
2018-09-14T02:25:32.563Z,3.80
2018-09-14T02:28:00.622Z,3.47
2018-09-14T02:30:28.718Z,3.67
2018-09-14T02:32:56.810Z,4.90
2018-09-14T02:35:24.911Z,4.70
2018-09-14T02:37:53.003Z,3.80
2018-09-14T02:40:21.097Z,4.23
2018-09-14T02:42:49.186Z,4.57
2018-09-14T02:45:17.366Z,4.07
2018-09-14T02:47:45.454Z,3.80
2018-09-14T02:50:13.571Z,4.30
2018-09-14T02:52:41.660Z,4.00
2018-09-14T02:55:09.780Z,4.37
2018-09-14T02:57:37.870Z,3.20
2018-09-14T03:00:06.428Z,3.67
2018-09-14T03:02:34.460Z,3.53
2018-09-14T03:05:02.558Z,3.53
2018-09-14T03:07:30.668Z,4.07
2018-09-14T03:09:58.766Z,3.73
2018-09-14T03:12:27.222Z,3.30
2018-09-14T03:14:55.338Z,3.20
2018-09-14T03:17:23.418Z,3.23
2018-09-14T03:19:51.531Z,3.10
2018-09-14T03:22:19.619Z,3.80
2018-09-14T03:24:47.725Z,3.63
2018-09-14T03:27:15.814Z,4.27
2018-09-14T03:29:43.912Z,4.20
2018-09-14T03:32:12.029Z,4.30
2018-09-14T03:34:40.086Z,4.33
2018-09-14T03:37:08.233Z,4.63
2018-09-14T03:39:36.331Z,4.13
2018-09-14T03:42:04.802Z,4.13
2018-09-14T03:44:32.886Z,3.97
2018-09-14T03:47:00.990Z,4.20
2018-09-14T03:49:29.084Z,3.93
2018-09-14T03:51:57.202Z,3.70
2018-09-14T03:54:25.295Z,3.80
2018-09-14T03:56:53.394Z,3.70
2018-09-14T03:59:21.489Z,3.53
2018-09-14T04:01:49.583Z,3.40
2018-09-14T04:04:17.687Z,4.07
2018-09-14T04:06:45.778Z,3.87
2018-09-14T04:09:13.866Z,3.33
2018-09-14T04:11:42.160Z,3.10
2018-09-14T04:14:10.262Z,4.07
2018-09-14T04:16:38.366Z,3.53
2018-09-14T04:19:06.447Z,4.30
2018-09-14T04:21:35.703Z,4.23
2018-09-14T04:24:04.069Z,4.00
2018-09-14T04:26:32.175Z,3.63
2018-09-14T04:29:01.006Z,3.23
2018-09-14T04:31:29.498Z,3.27
2018-09-14T04:33:57.649Z,3.73
2018-09-14T04:36:25.750Z,4.20
2018-09-14T04:38:53.854Z,3.77
2018-09-14T04:41:21.951Z,3.60
2018-09-14T04:43:50.034Z,3.57
2018-09-14T04:46:18.158Z,3.10
2018-09-14T04:48:46.250Z,4.10
2018-09-14T04:51:14.378Z,3.50
2018-09-14T04:53:42.450Z,3.10
2018-09-14T04:56:11.124Z,3.60
2018-09-14T04:58:39.387Z,3.57
2018-09-14T05:01:07.499Z,3.13
2018-09-14T05:03:35.670Z,3.43
2018-09-14T05:06:03.782Z,3.03
2018-09-14T05:08:31.871Z,3.50
2018-09-14T05:11:00.178Z,3.43
2018-09-14T05:13:28.266Z,2.90
2018-09-14T05:15:56.372Z,3.00
2018-09-14T05:18:24.466Z,3.63
2018-09-14T05:20:52.739Z,3.10
2018-09-14T05:23:20.843Z,3.40
2018-09-14T05:25:48.950Z,3.13
2018-09-14T05:28:17.059Z,3.13
2018-09-14T05:30:45.173Z,3.33
2018-09-14T05:33:13.283Z,3.03
2018-09-14T05:35:41.373Z,3.10
2018-09-14T05:38:09.509Z,3.17
2018-09-14T05:40:37.593Z,2.93
2018-09-14T05:43:05.719Z,3.10
2018-09-14T05:45:33.840Z,3.00
2018-09-14T05:48:01.932Z,3.43
2018-09-14T05:50:30.022Z,2.70
2018-09-14T05:52:58.146Z,3.30
2018-09-14T05:55:26.249Z,2.70
2018-09-14T05:57:54.350Z,3.40
2018-09-14T06:00:25.598Z,3.00
2018-09-14T06:02:53.714Z,3.47
2018-09-14T06:05:21.794Z,3.27
2018-09-14T06:07:49.884Z,3.37
2018-09-14T06:10:17.954Z,3.90
2018-09-14T06:12:46.043Z,3.73
2018-09-14T06:15:14.130Z,3.73
2018-09-14T06:17:42.221Z,4.27
2018-09-14T06:20:10.310Z,4.13
2018-09-14T06:22:38.469Z,4.10
2018-09-14T06:25:06.610Z,4.70
2018-09-14T06:27:35.269Z,4.53
2018-09-14T06:30:03.367Z,4.40
2018-09-14T06:32:31.478Z,4.63
2018-09-14T06:34:59.674Z,3.73
2018-09-14T06:37:27.855Z,3.60
2018-09-14T06:39:55.929Z,3.80
2018-09-14T06:42:24.044Z,4.27
2018-09-14T06:44:52.385Z,4.67
2018-09-14T06:47:20.733Z,5.17
2018-09-14T06:49:49.243Z,5.67
2018-09-14T06:52:17.891Z,5.37
2018-09-14T06:54:46.162Z,5.20
2018-09-14T06:57:14.666Z,5.63
2018-09-14T06:59:42.902Z,5.77
2018-09-14T07:02:11.031Z,5.27
2018-09-14T07:04:39.113Z,6.57
2018-09-14T07:07:07.244Z,6.03
2018-09-14T07:09:35.315Z,5.80
2018-09-14T07:12:03.402Z,6.53
2018-09-14T07:14:31.501Z,6.33
2018-09-14T07:16:59.630Z,7.07
2018-09-14T07:19:27.746Z,6.57
2018-09-14T07:21:56.002Z,5.70
2018-09-14T07:24:24.460Z,5.97
2018-09-14T07:26:52.576Z,5.73
2018-09-14T07:29:20.708Z,5.40
2018-09-14T07:31:48.932Z,5.37
2018-09-14T07:34:16.955Z,4.90
2018-09-14T07:36:45.412Z,4.57
2018-09-14T07:39:13.494Z,4.47
2018-09-14T07:41:41.782Z,5.60
2018-09-14T07:44:09.902Z,4.50
2018-09-14T07:46:37.986Z,4.70
2018-09-14T07:49:06.206Z,5.53
2018-09-14T07:51:34.302Z,6.37
2018-09-14T07:54:02.398Z,5.83
2018-09-14T07:56:30.485Z,6.23
2018-09-14T07:58:58.570Z,6.37
2018-09-14T08:01:26.941Z,6.23
2018-09-14T08:03:55.023Z,6.10
2018-09-14T08:06:23.165Z,5.80
2018-09-14T08:08:51.274Z,7.47
2018-09-14T08:11:19.353Z,7.20
2018-09-14T08:13:47.465Z,6.93
2018-09-14T08:16:15.666Z,7.37
2018-09-14T08:18:43.741Z,6.13
2018-09-14T08:21:11.952Z,6.80
2018-09-14T08:23:39.914Z,7.27
2018-09-14T08:26:08.012Z,7.87
2018-09-14T08:28:36.116Z,8.23
2018-09-14T08:31:04.206Z,8.00
2018-09-14T08:33:32.293Z,7.70
2018-09-14T08:36:00.381Z,7.97
2018-09-14T08:38:28.497Z,8.70
2018-09-14T08:40:56.576Z,7.70
2018-09-14T08:43:24.726Z,7.70
2018-09-14T08:45:52.803Z,7.27
2018-09-14T08:48:20.901Z,7.27
2018-09-14T08:50:49.166Z,7.27
2018-09-14T08:53:17.262Z,8.03
2018-09-14T08:55:45.346Z,7.10
2018-09-14T08:58:13.517Z,6.67
2018-09-14T09:00:41.582Z,7.90
2018-09-14T09:03:09.625Z,6.57
2018-09-14T09:05:37.903Z,8.43
2018-09-14T09:08:06.108Z,7.97
2018-09-14T09:10:34.185Z,7.93
2018-09-14T09:13:02.295Z,6.63
2018-09-14T09:15:30.380Z,6.87
2018-09-14T09:17:58.478Z,7.20
2018-09-14T09:20:26.630Z,5.53
2018-09-14T09:22:54.732Z,6.07
2018-09-14T09:25:22.810Z,7.40
2018-09-14T09:27:50.923Z,8.10
2018-09-14T09:30:19.010Z,7.90
2018-09-14T09:32:47.098Z,7.37
2018-09-14T09:35:15.196Z,6.57
2018-09-14T09:37:43.298Z,5.63
2018-09-14T09:40:11.393Z,5.90
2018-09-14T09:42:39.484Z,5.90
2018-09-14T09:45:07.574Z,6.80
2018-09-14T09:47:35.666Z,6.60
2018-09-14T09:50:03.834Z,6.13
2018-09-14T09:52:31.930Z,6.33
2018-09-14T09:55:00.026Z,5.17
2018-09-14T09:57:28.109Z,6.10
2018-09-14T09:59:56.210Z,6.43
2018-09-14T10:04:36.120Z,6.70
2018-09-14T10:07:04.200Z,6.30
2018-09-14T10:09:32.291Z,6.40
2018-09-14T10:12:00.378Z,6.40
2018-09-14T10:14:28.492Z,5.33
2018-09-14T10:16:56.570Z,5.50
2018-09-14T10:19:24.685Z,5.20
2018-09-14T10:21:52.807Z,5.97
2018-09-14T10:24:20.870Z,6.00
2018-09-14T10:26:48.998Z,4.47
2018-09-14T10:29:17.073Z,5.43
2018-09-14T10:31:45.153Z,4.03
2018-09-14T10:34:13.274Z,5.40
2018-09-14T10:36:41.370Z,6.13
2018-09-14T10:39:10.479Z,5.13
2018-09-14T10:41:38.558Z,4.43
2018-09-14T10:44:06.672Z,5.20
2018-09-14T10:46:34.994Z,5.50
2018-09-14T10:49:03.127Z,5.43
2018-09-14T10:51:31.441Z,5.17
2018-09-14T10:53:59.558Z,5.07
2018-09-14T10:56:27.660Z,6.60
2018-09-14T10:58:55.773Z,7.27
2018-09-14T11:01:23.873Z,5.47
2018-09-14T11:03:51.975Z,4.47
2018-09-14T11:06:20.062Z,5.27
2018-09-14T11:08:48.193Z,3.60
2018-09-14T11:11:16.305Z,5.07
2018-09-14T11:13:44.401Z,5.33
2018-09-14T11:16:12.535Z,6.03
2018-09-14T11:18:40.686Z,3.97
2018-09-14T11:21:08.766Z,3.97
2018-09-14T11:23:36.855Z,4.30
2018-09-14T11:26:05.034Z,3.50
2018-09-14T11:28:33.146Z,12.37
2018-09-14T11:31:01.234Z,22.40
2018-09-14T11:33:29.342Z,137.53
2018-09-14T11:35:57.659Z,77.50
2018-09-14T11:38:25.856Z,63.17
2018-09-14T11:40:53.846Z,12.03
2018-09-14T11:43:21.941Z,28.90
2018-09-14T11:45:50.062Z,22.37
2018-09-14T11:48:18.168Z,6.87
2018-09-14T11:50:46.268Z,6.00
2018-09-14T11:53:14.369Z,9.27
2018-09-14T11:55:42.485Z,5.97
2018-09-14T11:58:10.594Z,7.80
2018-09-14T12:00:38.976Z,5.77
2018-09-14T12:03:07.294Z,6.50
2018-09-14T12:05:35.405Z,6.57
2018-09-14T12:08:03.498Z,6.03
2018-09-14T12:10:31.616Z,5.03
2018-09-14T12:12:59.702Z,5.03
2018-09-14T12:15:27.798Z,4.90
2018-09-14T12:17:55.890Z,4.90
2018-09-14T12:20:24.002Z,4.10
2018-09-14T12:22:52.118Z,4.10
2018-09-14T12:25:20.311Z,3.53
2018-09-14T12:27:48.410Z,4.10
2018-09-14T12:30:16.506Z,3.77
2018-09-14T12:32:44.606Z,4.60
2018-09-14T12:35:12.690Z,4.63
2018-09-14T12:37:40.778Z,3.50
2018-09-14T12:40:08.887Z,4.63
2018-09-14T12:42:36.966Z,3.60
2018-09-14T12:45:05.066Z,3.73
2018-09-14T12:47:33.163Z,2.97
2018-09-14T12:50:01.255Z,3.47
2018-09-14T12:52:29.666Z,3.57
2018-09-14T12:54:57.754Z,3.80
2018-09-14T12:57:25.838Z,3.90
2018-09-14T12:59:53.926Z,3.13
2018-09-14T13:02:22.010Z,3.83
2018-09-14T13:04:50.107Z,3.80
2018-09-14T13:07:18.187Z,4.20
2018-09-14T13:09:46.277Z,3.70
2018-09-14T13:12:14.374Z,3.97
2018-09-14T13:14:42.531Z,3.83
2018-09-14T13:17:13.034Z,3.43
2018-09-14T13:19:41.315Z,3.83
2018-09-14T13:22:09.794Z,2.90
2018-09-14T13:24:37.882Z,3.00
2018-09-14T13:27:05.990Z,2.90
2018-09-14T13:29:34.319Z,3.33
2018-09-14T13:32:02.405Z,2.00
2018-09-14T13:34:30.496Z,1.90
2018-09-14T13:36:58.578Z,2.10
2018-09-14T13:39:26.670Z,1.67
2018-09-14T13:41:54.753Z,1.40
2018-09-14T13:44:22.852Z,1.87
2018-09-14T13:46:50.957Z,1.80
2018-09-14T13:49:19.034Z,1.80
2018-09-14T13:51:47.165Z,1.80
2018-09-14T13:54:15.250Z,1.90
2018-09-14T13:56:43.391Z,1.90
2018-09-14T13:59:11.473Z,1.70
2018-09-14T14:01:39.627Z,1.70
2018-09-14T14:04:07.644Z,2.53
2018-09-14T14:06:35.737Z,3.27
2018-09-14T14:09:07.222Z,2.77
2018-09-14T14:11:35.315Z,1.97
2018-09-14T14:14:03.397Z,2.40
2018-09-14T14:16:31.505Z,2.43
2018-09-14T14:18:59.570Z,2.97
2018-09-14T14:21:27.859Z,2.40
2018-09-14T14:23:56.070Z,2.00
2018-09-14T14:26:24.154Z,2.20
2018-09-14T14:28:52.281Z,1.93
2018-09-14T14:31:20.369Z,2.10
2018-09-14T14:33:48.534Z,1.70
2018-09-14T14:36:16.702Z,2.00
2018-09-14T14:38:44.769Z,2.00
2018-09-14T14:41:12.920Z,2.20
2018-09-14T14:43:40.946Z,2.10
2018-09-14T14:46:09.058Z,2.30
2018-09-14T14:48:37.446Z,1.80
2018-09-14T14:51:05.544Z,1.87
2018-09-14T14:53:33.633Z,1.80
2018-09-14T14:56:01.800Z,2.03
2018-09-14T14:58:29.814Z,1.93
2018-09-14T15:00:57.897Z,1.90
2018-09-14T15:03:25.998Z,2.17
2018-09-14T15:05:54.100Z,1.93
2018-09-14T15:08:22.186Z,2.20
2018-09-14T15:10:50.364Z,1.80
2018-09-14T15:13:18.366Z,2.07
2018-09-14T15:15:46.458Z,2.03
2018-09-14T15:18:14.547Z,2.20
2018-09-14T15:20:42.638Z,2.17
2018-09-14T15:23:10.718Z,2.30
2018-09-14T15:25:38.802Z,2.10
2018-09-14T15:28:06.902Z,2.40
2018-09-14T15:30:34.998Z,2.47
2018-09-14T15:33:03.086Z,2.30
2018-09-14T15:35:31.178Z,2.80
2018-09-14T15:37:59.314Z,1.77
2018-09-14T15:40:27.402Z,2.13
2018-09-14T15:42:55.494Z,2.20
2018-09-14T15:45:23.578Z,2.13
2018-09-14T15:47:51.672Z,2.27
2018-09-14T15:50:19.941Z,2.83
2018-09-14T15:52:48.027Z,2.33
2018-09-14T15:55:16.118Z,2.30
2018-09-14T15:57:44.287Z,2.33
2018-09-14T16:00:12.308Z,2.40
2018-09-14T16:02:40.558Z,2.00
2018-09-14T16:05:08.634Z,2.33
2018-09-14T16:07:36.733Z,2.10
2018-09-14T16:10:04.818Z,1.63
2018-09-14T16:12:32.915Z,2.20
2018-09-14T16:15:01.010Z,2.23
2018-09-14T16:17:29.103Z,1.90
2018-09-14T16:19:57.195Z,2.47
2018-09-14T16:22:25.295Z,2.40
2018-09-14T16:24:53.397Z,2.37
2018-09-14T16:27:21.549Z,2.30
2018-09-14T16:29:49.647Z,1.90
2018-09-14T16:32:17.761Z,2.30
2018-09-14T16:34:45.866Z,2.33
2018-09-14T16:37:14.072Z,1.97
2018-09-14T16:39:42.118Z,1.83
2018-09-14T16:42:10.213Z,2.13
2018-09-14T16:44:39.873Z,2.13
2018-09-14T16:47:08.184Z,1.97
2018-09-14T16:49:36.301Z,2.27
2018-09-14T16:52:04.386Z,2.13
2018-09-14T16:54:32.470Z,2.20
2018-09-14T16:57:00.746Z,2.10
2018-09-14T16:59:28.828Z,2.30
2018-09-14T17:01:57.092Z,2.30
2018-09-14T17:04:25.214Z,2.40
2018-09-14T17:06:53.386Z,2.10
2018-09-14T17:09:21.474Z,1.93
2018-09-14T17:11:49.558Z,2.40
2018-09-14T17:14:17.642Z,2.27
2018-09-14T17:16:45.739Z,2.70
2018-09-14T17:19:13.838Z,2.30
2018-09-14T17:21:41.933Z,2.60
2018-09-14T17:24:10.006Z,2.97
2018-09-14T17:26:38.106Z,2.37
2018-09-14T17:29:06.221Z,2.53
2018-09-14T17:31:34.309Z,2.80
2018-09-14T17:34:02.516Z,2.90
2018-09-14T17:36:30.626Z,2.57
2018-09-14T17:38:58.705Z,2.80
2018-09-14T17:41:26.794Z,2.70
2018-09-14T17:43:54.875Z,2.60
2018-09-14T17:46:22.985Z,2.50
2018-09-14T17:48:51.070Z,3.10
2018-09-14T17:51:19.154Z,2.80
2018-09-14T17:53:47.256Z,3.67
2018-09-14T17:56:15.355Z,3.17
2018-09-14T17:58:43.450Z,2.67
2018-09-14T18:01:11.541Z,2.50
2018-09-14T18:03:39.643Z,2.43
2018-09-14T18:06:07.717Z,3.00
2018-09-14T18:08:35.818Z,2.87
2018-09-14T18:11:03.902Z,2.80
2018-09-14T18:13:32.006Z,2.63
2018-09-14T18:16:00.090Z,2.70
2018-09-14T18:18:28.608Z,2.77
2018-09-14T18:20:56.686Z,3.00
2018-09-14T18:23:24.795Z,3.13
2018-09-14T18:25:52.918Z,2.90
2018-09-14T18:28:21.121Z,3.00
2018-09-14T18:30:49.218Z,3.50
2018-09-14T18:33:17.342Z,3.10
2018-09-14T18:35:45.445Z,2.70
2018-09-14T18:38:13.582Z,3.20
2018-09-14T18:40:41.662Z,3.00
2018-09-14T18:43:10.237Z,3.33
2018-09-14T18:45:38.330Z,3.40
2018-09-14T18:48:06.443Z,3.07
2018-09-14T18:50:34.523Z,3.20
2018-09-14T18:53:02.675Z,3.33
2018-09-14T18:55:30.822Z,3.40
2018-09-14T18:57:58.935Z,4.07
2018-09-14T19:00:27.646Z,3.67
2018-09-14T19:02:55.912Z,3.60
2018-09-14T19:05:24.087Z,4.00
2018-09-14T19:07:52.128Z,3.83
2018-09-14T19:10:20.227Z,3.60
2018-09-14T19:12:48.593Z,3.20
2018-09-14T19:15:16.675Z,3.93
2018-09-14T19:17:44.962Z,3.50
2018-09-14T19:20:13.049Z,3.73
2018-09-14T19:22:41.137Z,3.30
2018-09-14T19:25:09.240Z,3.37
2018-09-14T19:27:37.387Z,3.33
2018-09-14T19:30:05.426Z,3.50
2018-09-14T19:32:33.574Z,3.97
2018-09-14T19:35:01.666Z,4.13
2018-09-14T19:37:29.746Z,3.17
2018-09-14T19:39:58.091Z,3.80
2018-09-14T19:42:26.174Z,4.10
2018-09-14T19:44:54.303Z,4.63
2018-09-14T19:47:22.391Z,3.57
2018-09-14T19:49:50.505Z,3.57
2018-09-14T19:52:18.607Z,3.60
2018-09-14T19:54:46.710Z,4.57
2018-09-14T19:57:14.846Z,3.73
2018-09-14T19:59:43.078Z,3.70
2018-09-14T20:02:11.178Z,3.77
2018-09-14T20:04:39.257Z,4.27
2018-09-14T20:07:07.377Z,4.37
2018-09-14T20:09:35.454Z,4.10
2018-09-14T20:12:03.542Z,4.33
2018-09-14T20:14:31.622Z,4.70
2018-09-14T20:16:59.718Z,4.60
2018-09-14T20:19:27.815Z,4.60
2018-09-14T20:21:55.916Z,3.47
2018-09-14T20:24:24.198Z,4.40
2018-09-14T20:26:52.298Z,4.80
2018-09-14T20:29:20.421Z,4.20
2018-09-14T20:31:48.487Z,4.20
2018-09-14T20:34:16.571Z,4.50
2018-09-14T20:36:44.666Z,4.70
2018-09-14T20:39:13.357Z,3.80
2018-09-14T20:41:41.439Z,4.73
2018-09-14T20:44:09.530Z,4.53
2018-09-14T20:46:37.627Z,6.30
2018-09-14T20:49:05.711Z,5.20
2018-09-14T20:51:33.810Z,5.50
2018-09-14T20:54:01.902Z,4.90
2018-09-14T20:56:29.981Z,4.60
2018-09-14T20:58:58.078Z,5.10
2018-09-14T21:01:26.170Z,4.73
2018-09-14T21:03:54.256Z,5.13
2018-09-14T21:06:22.354Z,5.00
2018-09-14T21:08:50.447Z,5.10
2018-09-14T21:11:18.554Z,4.60
2018-09-14T21:13:46.653Z,4.87
2018-09-14T21:16:14.750Z,5.30
2018-09-14T21:18:42.870Z,5.47
2018-09-14T21:21:10.954Z,4.90
2018-09-14T21:23:39.050Z,5.10
2018-09-14T21:26:07.178Z,4.97
2018-09-14T21:28:35.281Z,4.87
2018-09-14T21:31:03.375Z,5.30
2018-09-14T21:33:31.470Z,5.70
2018-09-14T21:35:59.558Z,5.23
2018-09-14T21:38:27.661Z,6.50
2018-09-14T21:40:55.747Z,5.77
2018-09-14T21:43:23.833Z,6.90
2018-09-14T21:45:51.918Z,6.27
2018-09-14T21:48:20.060Z,6.00
2018-09-14T21:50:48.134Z,7.07
2018-09-14T21:53:16.230Z,6.30
2018-09-14T21:55:44.310Z,6.20
2018-09-14T21:58:12.409Z,5.50
2018-09-14T22:00:45.769Z,5.50
2018-09-14T22:03:13.900Z,6.83
2018-09-14T22:05:41.991Z,6.40
2018-09-14T22:08:10.091Z,6.03
2018-09-14T22:10:38.182Z,6.03
2018-09-14T22:13:06.385Z,5.50
2018-09-14T22:15:34.478Z,6.30
2018-09-14T22:18:02.622Z,7.10
2018-09-14T22:20:30.701Z,6.10
2018-09-14T22:22:58.811Z,6.03
2018-09-14T22:25:26.903Z,6.40
2018-09-14T22:27:54.993Z,6.10
2018-09-14T22:30:23.107Z,6.60
2018-09-14T22:32:51.185Z,6.77
2018-09-14T22:35:19.493Z,6.33
2018-09-14T22:37:47.535Z,5.63
2018-09-14T22:40:15.636Z,6.20
2018-09-14T22:42:43.738Z,5.50
2018-09-14T22:45:11.833Z,6.00
2018-09-14T22:47:39.914Z,6.27
2018-09-14T22:50:08.021Z,6.03
2018-09-14T22:52:36.156Z,6.10
2018-09-14T22:55:04.254Z,6.47
2018-09-14T22:57:32.342Z,5.70
2018-09-14T23:00:00.454Z,6.30
2018-09-14T23:02:28.541Z,5.47
2018-09-14T23:04:56.661Z,5.80
2018-09-14T23:07:24.743Z,6.10
2018-09-14T23:09:52.891Z,5.40
2018-09-14T23:12:20.978Z,6.07
2018-09-14T23:14:49.073Z,5.97
2018-09-14T23:17:17.321Z,6.20
2018-09-14T23:19:45.413Z,5.67
2018-09-14T23:22:13.514Z,6.47
2018-09-14T23:24:41.583Z,7.17
2018-09-14T23:27:09.682Z,6.50
2018-09-14T23:29:37.774Z,6.47
2018-09-14T23:32:06.067Z,7.00
2018-09-14T23:34:34.154Z,6.30
2018-09-14T23:37:02.260Z,7.27
2018-09-14T23:39:30.346Z,6.73
2018-09-14T23:41:58.470Z,6.20
2018-09-14T23:44:26.549Z,6.10
2018-09-14T23:46:54.657Z,6.43
2018-09-14T23:49:22.758Z,6.50
2018-09-14T23:51:50.841Z,6.53
2018-09-14T23:54:18.929Z,6.10
2018-09-14T23:56:47.026Z,6.23
2018-09-14T23:59:15.109Z,6.70
